createdAt,value
2018-05-25T00:01:30.528Z,84.00
2018-05-25T00:03:58.039Z,83.90
2018-05-25T00:06:25.548Z,83.80
2018-05-25T00:08:53.072Z,84.80
2018-05-25T00:11:21.351Z,84.10
2018-05-25T00:13:49.640Z,84.20
2018-05-25T00:16:17.907Z,84.30
2018-05-25T00:18:46.193Z,84.80
2018-05-25T00:21:14.469Z,84.50
2018-05-25T00:23:42.751Z,85.80
2018-05-25T00:26:10.247Z,85.80
2018-05-25T00:28:37.777Z,85.00
2018-05-25T00:31:05.279Z,84.90
2018-05-25T00:33:32.771Z,84.60
2018-05-25T00:36:01.055Z,86.30
2018-05-25T00:38:29.325Z,86.10
2018-05-25T00:40:57.613Z,85.50
2018-05-25T00:43:25.127Z,85.50
2018-05-25T00:45:52.639Z,85.60
2018-05-25T00:48:20.137Z,86.10
2018-05-25T00:50:47.660Z,86.30
2018-05-25T00:53:15.161Z,86.10
2018-05-25T00:55:42.669Z,85.60
2018-05-25T00:58:10.183Z,86.50
2018-05-25T01:00:37.684Z,85.70
2018-05-25T01:03:05.191Z,85.50
2018-05-25T01:05:32.686Z,85.40
2018-05-25T01:08:00.978Z,86.40
2018-05-25T01:10:28.475Z,86.30
2018-05-25T01:12:55.990Z,86.80
2018-05-25T01:15:23.501Z,86.70
2018-05-25T01:17:50.990Z,86.40
2018-05-25T01:20:19.278Z,86.20
2018-05-25T01:22:46.797Z,86.10
2018-05-25T01:25:14.316Z,86.70
2018-05-25T01:27:41.825Z,86.40
2018-05-25T01:30:12.250Z,85.60
2018-05-25T01:32:39.752Z,85.90
2018-05-25T01:35:07.264Z,86.10
2018-05-25T01:37:34.769Z,86.60
2018-05-25T01:40:02.295Z,86.30
2018-05-25T01:42:30.569Z,86.00
2018-05-25T01:44:58.839Z,86.90
2018-05-25T01:47:26.361Z,86.80
2018-05-25T01:49:53.880Z,86.50
2018-05-25T01:52:22.169Z,86.30
2018-05-25T01:54:49.681Z,86.30
2018-05-25T01:57:17.191Z,86.80
2018-05-25T01:59:44.689Z,86.80
2018-05-25T02:02:12.211Z,86.80
2018-05-25T02:04:39.721Z,86.80
2018-05-25T02:07:07.233Z,86.90
2018-05-25T02:09:34.749Z,86.90
2018-05-25T02:12:03.033Z,86.80
2018-05-25T02:14:31.316Z,86.80
2018-05-25T02:16:59.585Z,86.80
2018-05-25T02:19:27.863Z,88.00
2018-05-25T02:21:56.171Z,88.00
2018-05-25T02:24:23.710Z,88.00
2018-05-25T02:26:51.222Z,86.90
2018-05-25T02:29:18.753Z,88.40
2018-05-25T02:31:46.267Z,88.30
2018-05-25T02:34:14.542Z,87.90
2018-05-25T02:36:42.820Z,87.90
2018-05-25T02:39:11.098Z,87.70
2018-05-25T02:41:39.393Z,87.90
2018-05-25T02:44:06.905Z,87.90
2018-05-25T02:46:34.424Z,87.70
2018-05-25T02:49:01.949Z,87.70
2018-05-25T02:51:30.250Z,87.50
2018-05-25T02:53:57.757Z,87.50
2018-05-25T02:56:25.295Z,87.30
2018-05-25T02:58:52.802Z,87.50
2018-05-25T03:01:21.077Z,87.90
2018-05-25T03:03:49.370Z,87.50
2018-05-25T03:06:16.881Z,87.50
2018-05-25T03:08:44.429Z,87.60
2018-05-25T03:11:11.944Z,87.60
2018-05-25T03:13:40.236Z,87.80
2018-05-25T03:16:07.743Z,87.80
2018-05-25T03:18:35.269Z,87.90
2018-05-25T03:21:02.764Z,87.80
2018-05-25T03:23:30.261Z,87.50
2018-05-25T03:25:57.799Z,87.70
2018-05-25T03:28:26.074Z,87.50
2018-05-25T03:30:54.365Z,87.70
2018-05-25T03:33:21.855Z,87.60
2018-05-25T03:35:49.376Z,87.90
2018-05-25T03:38:17.657Z,88.20
2018-05-25T03:40:45.945Z,88.00
2018-05-25T03:43:13.457Z,88.00
2018-05-25T03:45:40.980Z,88.20
2018-05-25T03:48:08.476Z,88.20
2018-05-25T03:50:35.971Z,88.10
2018-05-25T03:53:03.479Z,87.80
2018-05-25T03:55:30.986Z,88.50
2018-05-25T03:57:58.499Z,88.70
2018-05-25T04:00:38.040Z,88.20
2018-05-25T04:03:05.553Z,88.00
2018-05-25T04:05:33.070Z,87.80
2018-05-25T04:08:01.447Z,87.90
2018-05-25T04:10:28.960Z,88.40
2018-05-25T04:12:56.480Z,88.50
2018-05-25T04:15:24.755Z,89.00
2018-05-25T04:17:53.015Z,88.70
2018-05-25T04:20:20.537Z,88.70
2018-05-25T04:22:48.033Z,88.40
2018-05-25T04:25:15.543Z,88.60
2018-05-25T04:27:43.058Z,89.00
2018-05-25T04:30:10.588Z,89.80
2018-05-25T04:32:38.091Z,89.40
2018-05-25T04:35:06.389Z,89.90
2018-05-25T04:37:33.888Z,89.90
2018-05-25T04:40:01.411Z,90.00
2018-05-25T04:42:28.931Z,90.00
2018-05-25T04:44:57.206Z,90.00
2018-05-25T04:47:25.497Z,90.00
2018-05-25T04:49:53.768Z,89.70
2018-05-25T04:52:22.064Z,89.60
2018-05-25T04:54:49.580Z,89.60
2018-05-25T04:57:17.097Z,89.20
2018-05-25T04:59:44.608Z,88.90
2018-05-25T05:02:12.124Z,89.00
2018-05-25T05:04:39.643Z,88.50
2018-05-25T05:07:07.916Z,90.20
2018-05-25T05:09:36.223Z,90.50
2018-05-25T05:12:03.736Z,90.40
2018-05-25T05:14:32.029Z,90.20
2018-05-25T05:17:00.306Z,89.50
2018-05-25T05:19:28.587Z,88.90
2018-05-25T05:21:56.109Z,88.90
2018-05-25T05:24:23.624Z,88.60
2018-05-25T05:26:51.141Z,88.60
2018-05-25T05:29:19.400Z,88.80
2018-05-25T05:31:46.906Z,88.70
2018-05-25T05:34:14.421Z,88.70
2018-05-25T05:36:41.935Z,89.10
2018-05-25T05:39:09.433Z,89.80
2018-05-25T05:41:36.957Z,89.00
2018-05-25T05:44:04.456Z,89.40
2018-05-25T05:46:31.989Z,89.60
2018-05-25T05:48:59.491Z,89.50
2018-05-25T05:51:27.762Z,89.20
2018-05-25T05:53:56.050Z,88.90
2018-05-25T05:56:24.309Z,88.70
2018-05-25T05:58:51.845Z,88.70
2018-05-25T06:01:19.372Z,88.60
2018-05-25T06:03:46.885Z,88.60
2018-05-25T06:06:14.396Z,88.70
2018-05-25T06:08:41.907Z,88.50
2018-05-25T06:11:10.180Z,86.30
2018-05-25T06:13:37.703Z,86.20
2018-05-25T06:16:05.214Z,86.40
2018-05-25T06:18:33.491Z,85.00
2018-05-25T06:21:01.780Z,85.60
2018-05-25T06:23:29.272Z,85.60
2018-05-25T06:25:56.780Z,85.40
2018-05-25T06:28:25.053Z,84.90
2018-05-25T06:30:53.363Z,84.80
2018-05-25T06:33:20.864Z,84.80
2018-05-25T06:35:48.375Z,84.80
2018-05-25T06:38:15.873Z,84.10
2018-05-25T06:40:43.368Z,84.30
2018-05-25T06:43:11.670Z,83.70
2018-05-25T06:45:39.164Z,83.70
2018-05-25T06:48:06.693Z,83.00
2018-05-25T06:50:34.210Z,83.10
2018-05-25T06:53:02.502Z,83.40
2018-05-25T06:55:30.017Z,83.30
2018-05-25T06:57:57.583Z,81.70
2018-05-25T07:00:25.077Z,82.20
2018-05-25T07:02:52.628Z,82.00
2018-05-25T07:05:20.933Z,83.70
2018-05-25T07:07:48.419Z,83.80
2018-05-25T07:10:15.951Z,82.80
2018-05-25T07:12:43.456Z,82.10
2018-05-25T07:15:10.972Z,81.30
2018-05-25T07:17:38.481Z,80.00
2018-05-25T07:20:05.996Z,80.30
2018-05-25T07:22:33.505Z,79.30
2018-05-25T07:25:01.789Z,78.10
2018-05-25T07:27:30.064Z,77.50
2018-05-25T07:29:58.332Z,77.70
2018-05-25T07:32:26.624Z,77.60
2018-05-25T07:34:54.880Z,77.70
2018-05-25T07:37:22.390Z,77.60
2018-05-25T07:39:49.887Z,76.00
2018-05-25T07:42:17.424Z,75.30
2018-05-25T07:44:44.938Z,69.10
2018-05-25T07:47:12.459Z,70.90
2018-05-25T07:49:39.963Z,67.30
2018-05-25T07:52:07.506Z,66.30
2018-05-25T07:54:35.772Z,62.10
2018-05-25T07:57:04.050Z,52.70
2018-05-25T07:59:32.323Z,55.60
2018-05-25T08:02:00.592Z,53.90
2018-05-25T08:04:28.879Z,51.20
2018-05-25T08:06:57.147Z,48.50
2018-05-25T08:09:25.423Z,45.30
2018-05-25T08:11:53.713Z,44.70
2018-05-25T08:14:22.003Z,45.20
2018-05-25T08:16:49.509Z,45.10
2018-05-25T08:19:17.025Z,41.70
2018-05-25T08:21:44.547Z,40.00
2018-05-25T08:24:12.889Z,40.10
2018-05-25T08:26:40.408Z,40.00
2018-05-25T08:29:07.921Z,37.60
2018-05-25T08:31:35.430Z,40.10
2018-05-25T08:34:02.941Z,38.80
2018-05-25T08:36:30.466Z,35.20
2018-05-25T08:38:57.969Z,38.60
2018-05-25T08:41:25.498Z,37.20
2018-05-25T08:43:53.005Z,37.20
2018-05-25T08:46:21.305Z,36.90
2018-05-25T08:48:48.817Z,36.90
2018-05-25T08:51:17.092Z,35.50
2018-05-25T08:53:44.625Z,35.50
2018-05-25T08:56:12.168Z,33.90
2018-05-25T08:58:39.698Z,34.70
2018-05-25T09:01:07.981Z,32.20
2018-05-25T09:03:35.503Z,32.20
2018-05-25T09:06:03.004Z,31.60
2018-05-25T09:08:30.510Z,30.90
2018-05-25T09:10:58.035Z,31.40
2018-05-25T09:13:25.535Z,29.30
2018-05-25T09:15:53.048Z,31.60
2018-05-25T09:18:20.548Z,31.70
2018-05-25T09:20:48.057Z,31.10
2018-05-25T09:23:15.632Z,31.60
2018-05-25T09:25:43.195Z,30.50
2018-05-25T09:28:10.689Z,29.50
2018-05-25T09:30:38.230Z,32.00
2018-05-25T09:33:05.724Z,30.40
2018-05-25T09:35:34.103Z,31.20
2018-05-25T09:38:02.393Z,30.10
2018-05-25T09:40:30.660Z,28.70
2018-05-25T09:42:58.946Z,29.50
2018-05-25T09:45:27.209Z,30.10
2018-05-25T09:47:55.627Z,28.50
2018-05-25T09:50:23.123Z,28.40
2018-05-25T09:52:50.754Z,29.60
2018-05-25T09:55:18.252Z,30.50
2018-05-25T09:57:56.629Z,29.80
2018-05-25T10:00:26.040Z,31.10
2018-05-25T10:02:53.534Z,30.20
2018-05-25T10:05:21.825Z,33.20
2018-05-25T10:07:50.083Z,30.60
2018-05-25T10:10:17.609Z,30.80
2018-05-25T10:12:45.143Z,29.80
2018-05-25T10:15:12.669Z,29.40
2018-05-25T10:17:40.931Z,34.80
2018-05-25T10:20:08.484Z,34.70
2018-05-25T10:22:36.005Z,31.00
2018-05-25T10:25:03.510Z,31.40
2018-05-25T10:27:31.034Z,30.00
2018-05-25T10:29:58.537Z,31.60
2018-05-25T10:32:26.833Z,31.20
2018-05-25T10:34:54.347Z,31.10
2018-05-25T10:37:21.881Z,29.90
2018-05-25T10:39:49.377Z,30.30
2018-05-25T10:42:16.902Z,28.50
2018-05-25T10:44:44.397Z,28.40
2018-05-25T10:47:11.920Z,30.50
2018-05-25T10:49:39.423Z,30.30
2018-05-25T10:52:07.700Z,31.20
2018-05-25T10:54:36.012Z,29.20
2018-05-25T10:57:03.516Z,29.30
2018-05-25T10:59:31.032Z,31.40
2018-05-25T11:01:58.546Z,32.00
2018-05-25T11:04:26.833Z,33.10
2018-05-25T11:06:55.098Z,31.30
2018-05-25T11:09:23.383Z,33.20
2018-05-25T11:11:51.767Z,31.90
2018-05-25T11:14:20.042Z,29.70
2018-05-25T11:16:48.325Z,31.20
2018-05-25T11:19:15.831Z,31.20
2018-05-25T11:21:43.339Z,32.60
2018-05-25T11:24:10.848Z,30.40
2018-05-25T11:26:38.364Z,32.60
2018-05-25T11:29:05.885Z,29.30
2018-05-25T11:31:33.404Z,28.50
2018-05-25T11:34:00.899Z,29.50
2018-05-25T11:36:28.426Z,33.70
2018-05-25T11:38:55.919Z,27.60
2018-05-25T11:41:23.412Z,28.80
2018-05-25T11:43:50.988Z,29.70
2018-05-25T11:46:18.501Z,30.10
2018-05-25T11:48:46.013Z,30.80
2018-05-25T11:51:13.548Z,33.90
2018-05-25T11:53:41.808Z,29.40
2018-05-25T11:56:10.072Z,30.00
2018-05-25T11:58:37.616Z,30.00
2018-05-25T12:01:05.140Z,30.60
2018-05-25T12:03:32.647Z,31.90
2018-05-25T12:06:00.941Z,29.40
2018-05-25T12:08:29.211Z,28.90
2018-05-25T12:10:57.493Z,30.20
2018-05-25T12:13:25.801Z,30.70
2018-05-25T12:15:53.312Z,31.20
2018-05-25T12:18:21.605Z,30.50
2018-05-25T12:20:49.141Z,30.00
2018-05-25T12:23:16.648Z,30.00
2018-05-25T12:25:44.181Z,30.40
2018-05-25T12:28:11.694Z,27.20
2018-05-25T12:30:39.205Z,29.40
2018-05-25T12:33:06.727Z,30.00
2018-05-25T12:35:34.232Z,28.70
2018-05-25T12:38:01.747Z,30.00
2018-05-25T12:40:29.298Z,29.10
2018-05-25T12:42:56.825Z,28.70
2018-05-25T12:45:24.335Z,31.70
2018-05-25T12:47:52.639Z,29.70
2018-05-25T12:50:20.150Z,29.70
2018-05-25T12:52:47.665Z,29.90
2018-05-25T12:55:15.187Z,29.70
2018-05-25T12:57:43.461Z,28.90
2018-05-25T13:00:11.744Z,30.50
2018-05-25T13:02:40.026Z,30.10
2018-05-25T13:05:08.323Z,29.70
2018-05-25T13:07:35.825Z,29.70
2018-05-25T13:10:03.353Z,28.50
2018-05-25T13:12:30.855Z,30.40
2018-05-25T13:14:58.376Z,28.10
2018-05-25T13:17:25.878Z,28.30
2018-05-25T13:19:53.394Z,27.60
2018-05-25T13:22:20.916Z,28.60
2018-05-25T13:24:49.195Z,26.40
2018-05-25T13:27:38.323Z,26.40
2018-05-25T13:30:05.947Z,28.00
2018-05-25T13:32:33.452Z,27.30
2018-05-25T13:35:00.988Z,24.50
2018-05-25T13:37:28.493Z,25.20
2018-05-25T13:39:56.774Z,25.20
2018-05-25T13:42:24.300Z,25.20
2018-05-25T13:44:51.809Z,24.00
2018-05-25T13:47:19.312Z,26.90
2018-05-25T13:49:46.841Z,27.00
2018-05-25T13:52:14.344Z,26.10
2018-05-25T13:54:42.618Z,26.20
2018-05-25T13:57:10.940Z,26.40
2018-05-25T13:59:38.446Z,26.40
2018-05-25T14:02:05.966Z,24.30
2018-05-25T14:04:33.503Z,25.50
2018-05-25T14:07:01.022Z,25.40
2018-05-25T14:09:29.300Z,26.10
2018-05-25T14:11:56.913Z,25.70
2018-05-25T14:14:24.755Z,26.10
2018-05-25T14:16:52.273Z,24.70
2018-05-25T14:19:19.818Z,24.90
2018-05-25T14:21:47.343Z,24.80
2018-05-25T14:24:14.951Z,26.30
2018-05-25T14:26:42.484Z,26.70
2018-05-25T14:29:10.007Z,27.20
2018-05-25T14:31:37.522Z,24.70
2018-05-25T14:34:05.255Z,24.40
2018-05-25T14:36:33.696Z,25.60
2018-05-25T14:39:01.965Z,25.60
2018-05-25T14:41:30.291Z,24.20
2018-05-25T14:43:57.806Z,24.10
2018-05-25T14:46:26.087Z,24.20
2018-05-25T14:48:54.393Z,25.20
2018-05-25T14:51:21.911Z,25.10
2018-05-25T14:53:49.420Z,26.30
2018-05-25T14:56:16.962Z,25.70
2018-05-25T14:58:44.481Z,25.70
2018-05-25T15:01:12.095Z,26.40
2018-05-25T15:03:39.621Z,25.80
2018-05-25T15:06:08.617Z,26.00
2018-05-25T15:08:36.914Z,28.20
2018-05-25T15:11:04.454Z,28.10
2018-05-25T15:13:32.734Z,29.30
2018-05-25T15:16:00.250Z,29.40
2018-05-25T15:18:27.787Z,30.30
2018-05-25T15:20:55.293Z,31.40
2018-05-25T15:23:22.830Z,31.90
2018-05-25T15:25:50.363Z,32.50
2018-05-25T15:28:17.902Z,33.30
2018-05-25T15:30:45.452Z,33.70
2018-05-25T15:33:13.741Z,36.30
2018-05-25T15:35:41.255Z,36.20
2018-05-25T15:38:08.774Z,36.20
2018-05-25T15:40:36.300Z,36.80
2018-05-25T15:43:03.810Z,36.10
2018-05-25T15:45:31.334Z,37.50
2018-05-25T15:47:58.864Z,38.10
2018-05-25T15:50:27.147Z,38.10
2018-05-25T15:52:55.450Z,39.80
2018-05-25T15:55:22.986Z,39.80
2018-05-25T15:57:50.514Z,41.30
2018-05-25T16:00:18.020Z,41.80
2018-05-25T16:02:45.540Z,40.20
2018-05-25T16:05:13.808Z,40.90
2018-05-25T16:07:41.327Z,40.90
2018-05-25T16:10:08.864Z,41.00
2018-05-25T16:12:36.402Z,40.70
2018-05-25T16:15:05.531Z,40.30
2018-05-25T16:17:33.124Z,40.60
2018-05-25T16:20:00.653Z,41.60
2018-05-25T16:22:28.187Z,41.70
2018-05-25T16:24:55.730Z,42.00
2018-05-25T16:27:24.002Z,42.10
2018-05-25T16:29:52.289Z,44.40
2018-05-25T16:32:20.585Z,47.20
2018-05-25T16:34:48.264Z,46.60
2018-05-25T16:37:15.781Z,47.70
2018-05-25T16:39:44.134Z,50.50
2018-05-25T16:42:11.652Z,50.40
2018-05-25T16:44:39.195Z,51.40
2018-05-25T16:47:06.733Z,51.60
2018-05-25T16:49:35.094Z,51.60
2018-05-25T16:52:02.609Z,51.50
2018-05-25T16:54:34.593Z,52.20
2018-05-25T16:57:07.307Z,53.00
2018-05-25T16:59:37.710Z,53.90
2018-05-25T17:02:08.393Z,53.00
2018-05-25T17:04:39.993Z,54.00
2018-05-25T17:07:14.689Z,55.20
2018-05-25T17:09:44.380Z,54.60
2018-05-25T17:12:14.139Z,54.10
2018-05-25T17:14:45.964Z,56.20
2018-05-25T17:17:13.641Z,56.10
2018-05-25T17:19:44.731Z,56.70
2018-05-25T17:22:18.791Z,58.00
2018-05-25T17:24:49.614Z,58.40
2018-05-25T17:27:18.878Z,58.30
2018-05-25T17:29:47.271Z,57.90
2018-05-25T17:32:15.536Z,58.00
2018-05-25T17:34:43.838Z,58.00
2018-05-25T17:37:11.356Z,58.00
2018-05-25T17:39:38.875Z,58.40
2018-05-25T17:42:08.260Z,58.50
2018-05-25T17:44:38.001Z,57.80
2018-05-25T17:47:05.613Z,58.10
2018-05-25T17:49:33.916Z,58.60
2018-05-25T17:52:03.016Z,58.60
2018-05-25T17:54:30.679Z,58.70
2018-05-25T17:56:58.234Z,59.20
2018-05-25T17:59:25.750Z,59.30
2018-05-25T18:01:54.050Z,59.90
2018-05-25T18:04:21.580Z,59.30
2018-05-25T18:06:49.134Z,59.50
2018-05-25T18:09:16.649Z,60.00
2018-05-25T18:11:44.170Z,59.80
2018-05-25T18:14:12.871Z,59.50
2018-05-25T18:16:40.409Z,59.50
2018-05-25T18:19:09.459Z,59.60
2018-05-25T18:21:37.830Z,59.20
2018-05-25T18:24:05.337Z,59.10
2018-05-25T18:26:33.686Z,59.70
2018-05-25T18:29:01.213Z,59.60
2018-05-25T18:31:28.712Z,59.30
2018-05-25T18:33:56.230Z,59.90
2018-05-25T18:36:28.881Z,60.00
2018-05-25T18:38:56.654Z,61.10
2018-05-25T18:41:24.999Z,59.90
2018-05-25T18:43:52.514Z,59.90
2018-05-25T18:46:20.059Z,60.00
2018-05-25T18:48:50.062Z,60.00
2018-05-25T18:51:17.963Z,60.30
2018-05-25T18:53:58.062Z,60.90
2018-05-25T18:56:25.574Z,60.90
2018-05-25T18:58:53.086Z,60.60
2018-05-25T19:01:20.614Z,61.30
2018-05-25T19:03:48.130Z,61.40
2018-05-25T19:06:15.667Z,61.70
2018-05-25T19:08:43.934Z,61.60
2018-05-25T19:11:12.219Z,62.20
2018-05-25T19:13:40.536Z,62.40
2018-05-25T19:16:08.041Z,62.40
2018-05-25T19:18:36.392Z,62.60
2018-05-25T19:21:03.893Z,62.60
2018-05-25T19:23:32.160Z,61.80
2018-05-25T19:25:59.682Z,61.80
2018-05-25T19:28:27.188Z,62.60
2018-05-25T19:30:55.461Z,63.00
2018-05-25T19:33:23.754Z,62.70
2018-05-25T19:35:51.270Z,62.70
2018-05-25T19:38:18.897Z,63.00
2018-05-25T19:40:46.401Z,63.20
2018-05-25T19:43:13.905Z,63.30
2018-05-25T19:45:41.442Z,64.10
2018-05-25T19:48:09.733Z,64.80
2018-05-25T19:50:37.250Z,64.80
2018-05-25T19:53:04.798Z,64.60
2018-05-25T19:55:32.310Z,64.80
2018-05-25T19:57:59.808Z,65.10
2018-05-25T20:00:27.336Z,64.10
2018-05-25T20:02:54.862Z,63.80
2018-05-25T20:05:23.169Z,65.30
2018-05-25T20:07:50.690Z,65.40
2018-05-25T20:10:18.965Z,66.40
2018-05-25T20:12:46.491Z,65.50
2018-05-25T20:15:14.026Z,64.20
2018-05-25T20:17:41.563Z,65.50
2018-05-25T20:20:09.856Z,66.60
2018-05-25T20:22:37.834Z,66.60
2018-05-25T20:25:06.303Z,67.50
2018-05-25T20:27:34.481Z,67.50
2018-05-25T20:30:02.032Z,67.60
2018-05-25T20:32:29.551Z,68.00
2018-05-25T20:34:57.121Z,67.70
2018-05-25T20:37:24.616Z,67.90
2018-05-25T20:39:52.183Z,67.80
2018-05-25T20:42:19.702Z,68.20
2018-05-25T20:44:47.993Z,68.20
2018-05-25T20:47:15.515Z,68.20
2018-05-25T20:49:43.042Z,67.60
2018-05-25T20:52:10.559Z,67.50
2018-05-25T20:54:38.830Z,67.80
2018-05-25T20:57:07.143Z,67.70
2018-05-25T20:59:34.662Z,67.70
2018-05-25T21:02:02.942Z,69.30
2018-05-25T21:04:31.240Z,69.90
2018-05-25T21:06:58.770Z,69.90
2018-05-25T21:09:26.280Z,69.60
2018-05-25T21:11:53.813Z,70.20
2018-05-25T21:14:21.317Z,70.40
2018-05-25T21:16:48.839Z,70.90
2018-05-25T21:19:16.390Z,70.20
2018-05-25T21:21:43.910Z,71.10
2018-05-25T21:24:11.412Z,71.20
2018-05-25T21:26:38.936Z,71.40
2018-05-25T21:29:06.453Z,71.00
2018-05-25T21:31:33.949Z,72.10
2018-05-25T21:34:01.477Z,71.20
2018-05-25T21:36:28.997Z,71.50
2018-05-25T21:38:56.503Z,72.20
2018-05-25T21:41:24.038Z,72.40
2018-05-25T21:43:51.559Z,72.50
2018-05-25T21:46:19.831Z,72.50
2018-05-25T21:48:48.129Z,73.70
2018-05-25T21:51:15.646Z,73.60
2018-05-25T21:53:43.150Z,73.30
2018-05-25T21:56:10.691Z,72.50
2018-05-25T21:58:38.977Z,72.30
2018-05-25T22:01:06.481Z,72.10
2018-05-25T22:03:34.005Z,73.60
2018-05-25T22:06:01.514Z,73.50
2018-05-25T22:08:29.026Z,74.40
2018-05-25T22:10:56.547Z,74.50
2018-05-25T22:13:24.817Z,74.70
2018-05-25T22:15:52.335Z,74.50
2018-05-25T22:18:19.865Z,73.90
2018-05-25T22:20:47.389Z,75.10
2018-05-25T22:23:14.902Z,74.40
2018-05-25T22:25:42.429Z,74.50
2018-05-25T22:28:10.697Z,75.40
2018-05-25T22:30:38.975Z,75.60
2018-05-25T22:33:07.279Z,75.90
2018-05-25T22:35:34.793Z,75.90
2018-05-25T22:38:02.296Z,77.10
2018-05-25T22:40:29.829Z,76.80
2018-05-25T22:43:10.099Z,76.10
2018-05-25T22:45:49.506Z,76.00
2018-05-25T22:48:28.877Z,76.20
2018-05-25T22:51:08.464Z,76.30
2018-05-25T22:53:41.310Z,76.10
2018-05-25T22:56:08.854Z,77.20
2018-05-25T22:58:36.367Z,77.30
2018-05-25T23:01:03.886Z,77.70
2018-05-25T23:03:31.699Z,77.90
2018-05-25T23:06:00.742Z,77.10
2018-05-25T23:08:28.249Z,77.10
2018-05-25T23:10:55.751Z,78.30
2018-05-25T23:13:23.287Z,78.70
2018-05-25T23:15:51.566Z,78.30
2018-05-25T23:18:19.857Z,77.90
2018-05-25T23:20:48.162Z,78.70
2018-05-25T23:23:15.675Z,78.80
2018-05-25T23:25:43.970Z,78.60
2018-05-25T23:28:11.497Z,78.60
2018-05-25T23:30:39.317Z,78.70
2018-05-25T23:33:06.852Z,79.10
2018-05-25T23:35:35.131Z,77.50
2018-05-25T23:38:02.632Z,77.50
2018-05-25T23:40:30.172Z,79.10
2018-05-25T23:42:57.677Z,79.10
2018-05-25T23:45:25.181Z,80.10
2018-05-25T23:47:52.739Z,79.60
2018-05-25T23:50:20.261Z,81.00
2018-05-25T23:52:48.530Z,81.80
2018-05-25T23:55:16.837Z,81.00
2018-05-25T23:57:44.341Z,81.00
